Estación de San Pedro

Ultimos registro cada 15 minutos 65
Estación Fecha / Hora Temperatura Humedad Lluvia Velocidad Dirección Radiación Presion
65 San Pedro 03-05-2026 16:00 24,1 21,7 0 0 17 133,1 1000
64 San Pedro 03-05-2026 15:45 24,9 15,7 0 0,5 285 170,6 1000,1
63 San Pedro 03-05-2026 15:30 25,5 12,5 0 0,5 268 240,6 1000
62 San Pedro 03-05-2026 15:15 25,4 11,4 0 1,5 234 261,9 999,8
61 San Pedro 03-05-2026 15:00 26 12,1 0 1,5 250 363,1 999,5
60 San Pedro 03-05-2026 14:45 26,1 27,9 0 1 258 468,1 999,9
59 San Pedro 03-05-2026 14:30 26,6 28,1 0 0,5 243 578,1 1000
58 San Pedro 03-05-2026 14:15 26 29,4 0 0,5 291 533,1 999,9
57 San Pedro 03-05-2026 14:00 25,6 30,9 0 0,5 234 578,1 1000,1
56 San Pedro 03-05-2026 13:45 25,3 31,4 0 0,5 282 599,4 1000,3
55 San Pedro 03-05-2026 13:30 25 34,9 0 0,5 354 605,6 1000,5
54 San Pedro 03-05-2026 13:15 24,4 33,4 0 0,5 251 611,9 1000,8
53 San Pedro 03-05-2026 13:00 24,2 35,5 0 0,5 268 615,6 1000,8
52 San Pedro 03-05-2026 12:45 24 37,8 0 0 271 618,1 1001
51 San Pedro 03-05-2026 12:30 24 39,9 0 0 66 615,6 1001,1
50 San Pedro 03-05-2026 12:15 23,5 40,5 0 0 44 611,9 1001,3
49 San Pedro 03-05-2026 12:00 23 41,9 0 0 45 601,9 1001,5
48 San Pedro 03-05-2026 11:45 21,9 44,2 0 0 34 591,9 1001,8
47 San Pedro 03-05-2026 11:30 20,3 47,2 0 0 52 580,6 1001,9
46 San Pedro 03-05-2026 11:15 20,2 48,2 0 0 119 556,9 1002,2
45 San Pedro 03-05-2026 11:00 18,8 49,9 0 0 277 533,1 1002,3
44 San Pedro 03-05-2026 10:45 17,4 52,8 0 0 313 509,4 1002,2
43 San Pedro 03-05-2026 10:30 17,1 54,9 0 0 248 481,9 1002,1
42 San Pedro 03-05-2026 10:15 14,7 62,3 0 0,5 258 450,6 1002,2
41 San Pedro 03-05-2026 10:00 14,2 64,1 0 0 270 416,9 1002,3
40 San Pedro 03-05-2026 09:45 14,9 62,9 0 0 265 380,6 1002,1
39 San Pedro 03-05-2026 09:30 11,3 75,9 0 0 267 341,9 1002,4
38 San Pedro 03-05-2026 09:15 10,5 78,1 0 0 310 300,6 1002,2
37 San Pedro 03-05-2026 09:00 9,6 79,3 0 0 55 259,4 1002,1
36 San Pedro 03-05-2026 08:45 7,5 85,8 0 0 79 220,6 1002
35 San Pedro 03-05-2026 08:30 6 85,9 0 0 70 183,1 1001,8
34 San Pedro 03-05-2026 08:15 3,2 90,5 0 0 81 143,1 1001,7
33 San Pedro 03-05-2026 08:00 1,7 94,6 0 0 81 88,1 1001,6
32 San Pedro 03-05-2026 07:45 0,6 95,9 0 0 77 11,9 1001,4
31 San Pedro 03-05-2026 07:30 1,4 96,6 0 0 219 5,6 1001,1
30 San Pedro 03-05-2026 07:15 0,5 95,6 0 0 93 1,9 1000,9
29 San Pedro 03-05-2026 07:00 2,9 97,7 0 0,5 90 0,6 1000,8
28 San Pedro 03-05-2026 06:45 3 97,7 0 0 101 0,6 1000,8
27 San Pedro 03-05-2026 06:30 1,5 97 0 0 102 0,6 1000,7
26 San Pedro 03-05-2026 06:15 1,3 96,8 0 0 102 0,6 1000,8
25 San Pedro 03-05-2026 06:00 1,4 96,4 0 0 102 0,6 1000,4
24 San Pedro 03-05-2026 05:45 1,5 96,9 0 0 102 0,6 1000,4
23 San Pedro 03-05-2026 05:30 1,4 94,7 0 0 102 0,6 1001
22 San Pedro 03-05-2026 05:15 2,8 95,2 0 0 101 0,6 1000,8
21 San Pedro 03-05-2026 05:00 3,3 95,7 0 0 95 0,6 1000,9
20 San Pedro 03-05-2026 04:45 2,2 93,8 0 0 104 0,6 1001,1
19 San Pedro 03-05-2026 04:30 1,8 94,1 0 0 124 0,6 1001,3
18 San Pedro 03-05-2026 04:15 3,4 93,9 0 0 102 0,6 1000,8
17 San Pedro 03-05-2026 04:00 3,7 96 0 0 79 0,6 1000,8
16 San Pedro 03-05-2026 03:45 3,3 94,7 0 0 122 0,6 1000,8
15 San Pedro 03-05-2026 03:30 3,5 94,9 0 0 239 0,6 1000,9
14 San Pedro 03-05-2026 03:15 3,2 94,8 0 0 239 0,6 1001
13 San Pedro 03-05-2026 03:00 3,5 92,5 0 0 222 0,6 1001,1
12 San Pedro 03-05-2026 02:45 5,8 90,5 0 0,5 76 0,6 1001,3
11 San Pedro 03-05-2026 02:30 6 92,6 0 0 264 0,6 1001,4
10 San Pedro 03-05-2026 02:15 3,6 92 0 0 264 0,6 1001,8
9 San Pedro 03-05-2026 02:00 6,7 83,7 0 0 87 0,6 1001,5
8 San Pedro 03-05-2026 01:45 7,2 86,7 0 0,5 88 0,6 1001,1
7 San Pedro 03-05-2026 01:30 6,2 90,3 0 0,5 88 0,6 1001,2
6 San Pedro 03-05-2026 01:15 5,6 90,4 0 0 102 0,6 1001,5
5 San Pedro 03-05-2026 01:00 7,6 86,4 0 0,5 74 0,6 1001,3
4 San Pedro 03-05-2026 00:45 6,6 90,2 0 0,5 83 0,6 1001,1
3 San Pedro 03-05-2026 00:30 6,1 91,7 0 0 81 0,6 1001,1
2 San Pedro 03-05-2026 00:15 7 88,6 0 0,5 77 0,6 1001,2
1 San Pedro 03-05-2026 00:00 7,2 89,1 0 0 248 0,6 1000,9